Time;durP1;ratioP1;P1;durP2;ratioP2;P2;SDS_P1;SDS_P2;PMS_P1;PMS_P2;Temp;Humidity;BMP_temperature;BMP_pressure;BME280_temperature;BME280_humidity;BME280_pressure;Samples;Min_cycle;Max_cycle;Signal;HPM_P1;HPM_P2
2023/05/19 00:01:08;;;;;;;3.40;1.77;;;10.30;99.90;;;;;;4991260;28;20056;-50
2023/05/19 00:03:39;;;;;;;2.47;1.50;;;10.20;99.90;;;;;;4991031;28;20062;-49
2023/05/19 00:06:09;;;;;;;6.70;2.10;;;10.20;99.90;;;;;;4991091;28;20030;-52
2023/05/19 00:08:37;;;;;;;2.53;1.60;;;10.10;99.90;;;;;;4994658;28;20120;-49
2023/05/19 00:11:03;;;;;;;5.47;2.13;;;10.20;99.90;;;;;;4994587;28;20570;-50
2023/05/19 00:13:29;;;;;;;3.90;1.80;;;10.10;99.90;;;;;;4994798;28;20121;-48
2023/05/19 00:15:55;;;;;;;4.73;2.00;;;10.10;99.90;;;;;;4994722;28;20038;-49
2023/05/19 00:18:21;;;;;;;4.90;1.80;;;10.10;99.90;;;;;;4993767;28;20045;-50
2023/05/19 00:20:48;;;;;;;4.63;1.73;;;10.00;99.90;;;;;;4994415;28;20069;-48
2023/05/19 00:23:14;;;;;;;3.33;1.40;;;9.90;99.90;;;;;;4994217;28;20027;-48
2023/05/19 00:25:39;;;;;;;6.03;1.63;;;9.80;99.90;;;;;;4994947;28;20041;-48
2023/05/19 00:28:05;;;;;;;4.83;1.73;;;9.70;99.90;;;;;;4994530;28;20030;-52
2023/05/19 00:30:31;;;;;;;3.30;1.80;;;9.70;99.90;;;;;;4994242;28;20113;-50
2023/05/19 00:32:57;;;;;;;4.80;1.80;;;9.60;99.90;;;;;;4993094;28;20030;-48
2023/05/19 00:35:23;;;;;;;3.97;1.60;;;9.50;99.90;;;;;;4994500;28;20048;-49
2023/05/19 00:37:49;;;;;;;7.40;2.27;;;9.50;99.90;;;;;;4994345;28;20435;-52
2023/05/19 00:40:15;;;;;;;4.37;1.90;;;9.50;99.90;;;;;;4992869;28;20034;-52
2023/05/19 00:42:41;;;;;;;4.50;1.67;;;9.50;99.90;;;;;;4976836;28;20085;-49
2023/05/19 00:45:07;;;;;;;5.83;1.93;;;9.50;99.90;;;;;;4994559;28;20055;-49
2023/05/19 00:47:33;;;;;;;5.00;2.00;;;9.40;99.90;;;;;;4994560;28;20030;-49
2023/05/19 00:49:59;;;;;;;4.87;1.83;;;9.40;99.90;;;;;;4994240;28;20049;-50
2023/05/19 00:52:26;;;;;;;6.63;2.37;;;9.30;99.90;;;;;;4993583;28;20022;-49
2023/05/19 00:54:52;;;;;;;3.77;1.90;;;9.30;99.90;;;;;;4994176;28;20026;-49
2023/05/19 00:57:19;;;;;;;3.93;2.07;;;9.20;99.90;;;;;;4994249;28;20117;-49
2023/05/19 00:59:47;;;;;;;8.80;2.20;;;9.20;99.90;;;;;;4994231;28;20030;-49
2023/05/19 01:02:13;;;;;;;6.20;2.27;;;9.20;99.90;;;;;;4993661;28;20035;-49
2023/05/19 01:04:40;;;;;;;4.93;2.13;;;9.10;99.90;;;;;;4992723;28;20034;-49
2023/05/19 01:07:06;;;;;;;4.83;1.93;;;9.10;99.90;;;;;;4993980;28;20030;-51
2023/05/19 01:09:32;;;;;;;5.23;2.10;;;9.10;99.90;;;;;;4994514;28;20053;-49
2023/05/19 01:12:00;;;;;;;4.43;1.80;;;9.10;99.90;;;;;;4994025;28;20127;-53
2023/05/19 01:14:26;;;;;;;3.17;1.83;;;9.10;99.90;;;;;;4993932;28;20030;-50
2023/05/19 01:17:04;;;;;;;3.10;2.03;;;9.10;99.90;;;;;;4992780;28;20046;-48
2023/05/19 01:20:09;;;;;;;4.50;2.10;;;9.10;99.90;;;;;;4991272;28;20042;-49
2023/05/19 01:23:04;;;;;;;3.17;1.83;;;9.10;99.90;;;;;;4898159;29;20032;-50
2023/05/19 01:25:50;;;;;;;4.53;1.97;;;9.10;99.90;;;;;;4993723;28;20034;-49
2023/05/19 01:28:43;;;;;;;4.93;2.10;;;9.10;99.90;;;;;;4992424;28;20030;-48
2023/05/19 01:31:11;;;;;;;6.00;2.20;;;9.10;99.90;;;;;;4992012;28;20033;-53
2023/05/19 01:33:40;;;;;;;4.83;2.20;;;9.10;99.90;;;;;;4992030;28;20084;-49
2023/05/19 01:36:07;;;;;;;6.47;2.13;;;9.10;99.90;;;;;;4992030;28;20038;-49
2023/05/19 01:38:33;;;;;;;6.50;2.17;;;9.10;99.90;;;;;;4992176;28;20476;-49
2023/05/19 01:41:01;;;;;;;7.17;2.20;;;9.10;99.90;;;;;;4992886;28;20030;-51
2023/05/19 01:43:28;;;;;;;6.63;2.20;;;9.10;99.90;;;;;;4992887;28;20034;-49
2023/05/19 01:45:54;;;;;;;4.87;2.20;;;9.10;99.90;;;;;;4993276;28;20118;-49
2023/05/19 01:48:21;;;;;;;6.30;2.20;;;9.10;99.90;;;;;;4993151;28;20030;-50
2023/05/19 01:50:47;;;;;;;6.57;2.67;;;9.10;99.90;;;;;;4991581;28;20042;-50
2023/05/19 01:53:14;;;;;;;6.97;2.60;;;9.10;99.90;;;;;;4992905;28;20033;-49
2023/05/19 01:55:48;;;;;;;7.03;2.87;;;9.10;99.90;;;;;;4991858;28;20116;-49
2023/05/19 01:58:21;;;;;;;6.83;2.50;;;9.00;99.90;;;;;;4991746;28;20027;-49
2023/05/19 02:00:52;;;;;;;8.53;2.77;;;9.00;99.90;;;;;;4991344;28;20053;-49
2023/05/19 02:03:49;;;;;;;5.27;2.67;;;9.10;99.90;;;;;;4991211;28;20026;-49
2023/05/19 02:06:42;;;;;;;5.40;2.50;;;9.10;99.90;;;;;;4992701;28;20483;-48
2023/05/19 02:09:31;;;;;;;7.70;2.40;;;9.00;99.90;;;;;;4992813;28;20026;-52
2023/05/19 02:12:16;;;;;;;5.80;2.57;;;9.10;99.90;;;;;;4951827;28;20049;-50
2023/05/19 02:15:08;;;;;;;6.70;2.70;;;9.10;99.90;;;;;;4992598;28;20030;-48
2023/05/19 02:17:40;;;;;;;6.27;2.50;;;9.10;99.90;;;;;;4991377;28;20435;-49
2023/05/19 02:20:10;;;;;;;5.40;2.53;;;9.10;99.90;;;;;;4990798;28;20120;-48
2023/05/19 02:22:36;;;;;;;5.77;2.50;;;9.00;99.90;;;;;;4990761;28;20034;-50
2023/05/19 02:25:02;;;;;;;6.83;2.50;;;9.00;99.90;;;;;;4992535;28;20537;-49
2023/05/19 02:27:32;;;;;;;;;;;9.00;99.90;;;;;;4991484;28;20034;-49
2023/05/19 02:29:57;;;;;;;5.27;2.40;;;8.90;99.90;;;;;;4992083;28;19917;-49
2023/05/19 02:32:23;;;;;;;7.03;2.70;;;9.00;99.90;;;;;;4991763;28;20030;-48
2023/05/19 02:34:49;;;;;;;6.33;2.67;;;8.90;99.90;;;;;;4992656;28;20232;-49
2023/05/19 02:37:15;;;;;;;6.60;2.50;;;8.90;99.90;;;;;;4990936;28;20046;-48
2023/05/19 02:39:41;;;;;;;6.30;2.43;;;8.90;99.90;;;;;;4992444;28;20030;-49
2023/05/19 02:42:07;;;;;;;6.27;2.70;;;8.90;99.90;;;;;;4991884;28;20130;-49
2023/05/19 02:44:33;;;;;;;4.80;2.60;;;8.90;99.90;;;;;;4991950;28;20081;-50
2023/05/19 02:46:58;;;;;;;4.53;2.70;;;8.90;99.90;;;;;;4991949;28;20057;-49
2023/05/19 02:49:24;;;;;;;5.63;2.73;;;8.80;99.90;;;;;;4990783;28;20475;-49
2023/05/19 02:51:50;;;;;;;6.33;2.60;;;8.80;99.90;;;;;;4990576;28;20038;-49
2023/05/19 02:54:15;;;;;;;9.73;3.00;;;8.80;99.90;;;;;;4990522;28;20030;-48
2023/05/19 02:56:41;;;;;;;5.97;2.70;;;8.70;99.90;;;;;;4990745;28;20034;-48
2023/05/19 02:59:07;;;;;;;5.50;2.70;;;8.70;99.90;;;;;;4991982;28;20033;-49
2023/05/19 03:01:33;;;;;;;7.60;2.80;;;8.70;99.90;;;;;;4990044;28;20034;-49
2023/05/19 03:03:59;;;;;;;7.53;3.43;;;8.70;99.90;;;;;;4991855;28;20419;-48
2023/05/19 03:06:24;;;;;;;6.50;3.20;;;8.70;99.90;;;;;;4991668;28;20085;-49
2023/05/19 03:08:50;;;;;;;5.70;2.47;;;8.60;99.90;;;;;;4991969;28;20310;-49
2023/05/19 03:11:16;;;;;;;7.73;3.00;;;8.70;99.90;;;;;;4990467;28;20394;-49
2023/05/19 03:13:42;;;;;;;5.57;3.00;;;8.70;99.90;;;;;;4991711;28;20030;-48
2023/05/19 03:16:08;;;;;;;7.10;3.10;;;8.60;99.90;;;;;;4991573;28;20061;-48
2023/05/19 03:18:33;;;;;;;10.17;2.87;;;8.60;99.90;;;;;;4991742;28;20498;-49
2023/05/19 03:20:59;;;;;;;7.53;3.17;;;8.60;99.90;;;;;;4989983;28;20034;-48
2023/05/19 03:23:26;;;;;;;5.80;2.80;;;8.50;99.90;;;;;;4990067;28;20463;-48
2023/05/19 03:25:55;;;;;;;6.87;2.80;;;8.50;99.90;;;;;;4990187;28;20026;-49
2023/05/19 03:28:26;;;;;;;4.95;3.00;;;8.50;99.90;;;;;;4991581;28;20026;-49
2023/05/19 03:30:52;;;;;;;6.97;3.33;;;8.50;99.90;;;;;;4991275;28;20038;-50
2023/05/19 03:33:22;;;;;;;;;;;8.50;99.90;;;;;;4990477;28;20054;-49
2023/05/19 03:35:48;;;;;;;6.43;2.97;;;8.40;99.90;;;;;;4990431;28;20023;-50
2023/05/19 03:38:15;;;;;;;8.20;2.93;;;8.40;99.90;;;;;;4990252;28;20058;-49
2023/05/19 03:40:48;;;;;;;7.47;2.90;;;8.40;99.90;;;;;;4990082;28;20081;-52
2023/05/19 03:43:15;;;;;;;6.10;2.80;;;8.40;99.90;;;;;;4993372;28;20526;-49
2023/05/19 03:45:45;;;;;;;6.53;2.37;;;8.40;99.90;;;;;;4994645;28;20449;-50
2023/05/19 03:48:43;;;;;;;6.97;2.60;;;8.40;99.90;;;;;;4972812;28;20479;-48
2023/05/19 03:51:15;;;;;;;7.10;3.33;;;8.30;99.90;;;;;;4995212;28;20038;-47
2023/05/19 03:53:41;;;;;;;7.00;3.00;;;8.30;99.90;;;;;;4993710;28;20057;-49
2023/05/19 03:56:10;;;;;;;7.10;2.80;;;8.30;99.90;;;;;;4994050;28;20038;-48
2023/05/19 03:58:39;;;;;;;5.67;2.70;;;8.20;99.90;;;;;;4993961;28;20027;-49
2023/05/19 04:01:05;;;;;;;6.23;2.57;;;8.30;99.90;;;;;;4993801;28;20121;-49
2023/05/19 04:03:31;;;;;;;8.27;3.10;;;8.30;99.90;;;;;;4994909;28;20109;-48
2023/05/19 04:05:56;;;;;;;7.10;2.83;;;8.30;99.90;;;;;;4993774;28;20042;-48
2023/05/19 04:08:22;;;;;;;6.77;3.00;;;8.30;99.90;;;;;;4993491;28;20472;-48
2023/05/19 04:10:48;;;;;;;6.50;2.73;;;8.40;99.90;;;;;;4993391;28;20045;-47
2023/05/19 04:13:13;;;;;;;8.67;2.70;;;8.40;99.90;;;;;;4994764;28;20479;-48
2023/05/19 04:15:40;;;;;;;5.30;2.77;;;8.50;99.90;;;;;;4993606;28;20122;-47
2023/05/19 04:18:05;;;;;;;6.10;3.17;;;8.40;99.90;;;;;;4995387;28;20081;-52
2023/05/19 04:20:31;;;;;;;8.73;3.40;;;8.40;99.90;;;;;;4994384;28;20518;-47
2023/05/19 04:22:57;;;;;;;8.03;3.47;;;8.50;99.90;;;;;;4994390;28;20042;-48
2023/05/19 04:25:26;;;;;;;6.47;2.83;;;8.50;99.90;;;;;;4993461;28;20154;-48
2023/05/19 04:27:56;;;;;;;6.82;3.65;;;8.50;99.90;;;;;;4994514;28;20038;-49
2023/05/19 04:30:23;;;;;;;6.70;3.40;;;8.50;99.90;;;;;;4993144;28;20037;-49
2023/05/19 04:32:49;;;;;;;6.77;3.00;;;8.60;99.90;;;;;;4992908;28;20038;-50
2023/05/19 04:35:18;;;;;;;5.53;3.10;;;8.50;99.90;;;;;;4993310;28;20117;-50
2023/05/19 04:37:45;;;;;;;7.97;2.77;;;8.50;99.90;;;;;;4993117;28;20506;-49
2023/05/19 04:40:13;;;;;;;5.57;2.83;;;8.60;99.90;;;;;;4992753;28;20053;-48
2023/05/19 04:42:41;;;;;;;7.00;3.00;;;8.60;99.90;;;;;;4992667;28;20034;-48
2023/05/19 04:45:09;;;;;;;8.05;3.08;;;8.60;99.90;;;;;;4992921;28;20030;-48
2023/05/19 04:47:40;;;;;;;7.37;2.73;;;8.60;99.90;;;;;;4992780;28;20041;-48
2023/05/19 04:50:06;;;;;;;7.67;3.33;;;8.70;99.90;;;;;;4994009;28;20516;-51
2023/05/19 04:52:32;;;;;;;7.20;3.37;;;8.70;99.90;;;;;;4992198;28;20027;-48
2023/05/19 04:55:00;;;;;;;4.90;2.70;;;8.70;99.90;;;;;;4993070;28;20034;-48
2023/05/19 04:57:26;;;;;;;7.57;3.17;;;8.70;99.90;;;;;;4992888;28;20109;-48
2023/05/19 04:59:55;;;;;;;6.20;3.10;;;8.70;99.90;;;;;;4993904;28;20479;-48
2023/05/19 05:02:21;;;;;;;7.72;3.55;;;8.70;99.90;;;;;;4992229;28;20041;-48
2023/05/19 05:04:47;;;;;;;6.10;3.03;;;8.80;99.90;;;;;;4992836;28;20118;-49
2023/05/19 05:07:12;;;;;;;4.30;2.73;;;8.80;99.90;;;;;;4992595;28;20173;-49
2023/05/19 05:09:38;;;;;;;8.03;3.10;;;8.90;99.90;;;;;;4992508;28;20777;-52
2023/05/19 05:12:06;;;;;;;8.00;3.20;;;9.10;99.90;;;;;;4992185;28;20027;-51
2023/05/19 05:14:33;;;;;;;9.37;3.07;;;9.20;99.90;;;;;;4992330;28;20546;-50
2023/05/19 05:17:00;;;;;;;7.83;3.47;;;9.20;99.90;;;;;;4992079;28;20052;-52
2023/05/19 05:19:26;;;;;;;9.13;2.87;;;9.30;99.90;;;;;;4992274;28;20038;-51
2023/05/19 05:21:53;;;;;;;11.73;2.77;;;9.30;99.90;;;;;;4991892;28;20140;-52
2023/05/19 05:24:19;;;;;;;7.27;2.70;;;9.40;99.90;;;;;;4991939;28;20034;-49
2023/05/19 05:26:50;;;;;;;6.43;2.97;;;9.50;99.90;;;;;;4992122;28;20030;-49
2023/05/19 05:29:16;;;;;;;7.50;2.53;;;9.50;99.90;;;;;;4992177;28;20034;-50
2023/05/19 05:31:42;;;;;;;6.50;3.10;;;9.70;99.90;;;;;;4993319;28;20037;-51
2023/05/19 05:34:08;;;;;;;7.10;3.30;;;9.70;99.90;;;;;;4991972;28;20748;-51
2023/05/19 05:36:34;;;;;;;4.57;2.57;;;9.80;99.90;;;;;;4992093;28;20045;-53
2023/05/19 05:39:01;;;;;;;6.13;3.20;;;9.90;99.90;;;;;;4992214;28;20113;-50
2023/05/19 05:41:34;;;;;;;7.47;2.93;;;9.90;99.90;;;;;;4991517;28;20057;-52
2023/05/19 05:44:03;;;;;;;7.47;2.83;;;10.10;99.90;;;;;;4991592;28;20096;-53
2023/05/19 05:46:30;;;;;;;5.67;2.50;;;10.10;99.90;;;;;;4991829;28;20161;-52
2023/05/19 05:48:56;;;;;;;5.33;2.50;;;10.20;99.90;;;;;;4991731;28;20076;-51
2023/05/19 05:51:23;;;;;;;7.17;3.03;;;10.20;99.90;;;;;;4991487;28;20037;-49
2023/05/19 05:53:52;;;;;;;7.67;2.60;;;10.30;99.90;;;;;;4991299;28;20077;-50
2023/05/19 05:56:19;;;;;;;5.37;2.40;;;10.30;99.90;;;;;;4991593;28;20038;-53
2023/05/19 05:58:49;;;;;;;6.40;3.23;;;10.40;99.90;;;;;;4991522;28;20034;-51
2023/05/19 06:01:16;;;;;;;5.37;2.47;;;10.50;99.90;;;;;;4991042;28;20450;-51
2023/05/19 06:03:45;;;;;;;6.23;3.10;;;10.60;99.90;;;;;;4991156;28;20399;-51
2023/05/19 06:06:16;;;;;;;3.70;2.40;;;10.70;99.90;;;;;;4991006;28;20034;-50
2023/05/19 06:08:42;;;;;;;5.33;2.70;;;10.80;99.90;;;;;;4991444;28;20054;-51
2023/05/19 06:11:08;;;;;;;6.17;3.10;;;10.90;99.90;;;;;;4991162;28;20049;-49
2023/05/19 06:13:37;;;;;;;6.37;2.73;;;11.00;99.90;;;;;;4991274;28;20033;-51
2023/05/19 06:16:06;;;;;;;5.10;2.83;;;11.10;99.90;;;;;;4991557;28;20030;-49
2023/05/19 06:18:38;;;;;;;4.47;2.33;;;11.20;99.90;;;;;;4991574;28;20053;-48
2023/05/19 06:21:04;;;;;;;5.47;2.97;;;11.30;99.90;;;;;;4974936;28;20031;-49
2023/05/19 06:23:30;;;;;;;5.97;2.90;;;11.40;99.90;;;;;;4990936;28;20037;-49
2023/05/19 06:25:56;;;;;;;4.97;2.50;;;11.60;99.90;;;;;;4991205;28;20363;-48
2023/05/19 06:28:22;;;;;;;6.57;2.23;;;11.70;99.90;;;;;;4991209;28;20037;-49
2023/05/19 06:30:50;;;;;;;9.10;2.30;;;11.90;99.90;;;;;;4990748;28;20161;-48
2023/05/19 06:33:22;;;;;;;4.67;2.40;;;12.00;99.90;;;;;;4990815;28;20038;-54
2023/05/19 06:35:48;;;;;;;6.40;2.23;;;12.10;99.90;;;;;;4990952;28;20030;-50
2023/05/19 06:38:14;;;;;;;6.30;2.33;;;12.30;99.90;;;;;;4990815;28;20117;-51
2023/05/19 06:40:40;;;;;;;6.50;2.27;;;12.50;99.90;;;;;;4990648;28;20034;-49
2023/05/19 06:43:06;;;;;;;6.13;2.23;;;12.60;99.90;;;;;;4992148;28;20037;-53
2023/05/19 06:45:50;;;;;;;5.67;2.23;;;12.80;99.90;;;;;;4992122;28;20057;-50
2023/05/19 06:48:17;;;;;;;4.70;1.90;;;13.00;99.90;;;;;;4990824;28;20026;-49
2023/05/19 06:50:42;;;;;;;3.53;2.08;;;13.20;99.90;;;;;;4990294;28;20042;-51
2023/05/19 06:53:08;;;;;;;5.15;2.55;;;13.30;99.90;;;;;;4990337;28;20142;-49
2023/05/19 06:55:35;;;;;;;9.05;3.08;;;13.50;99.90;;;;;;4990457;28;20125;-51
2023/05/19 06:58:01;;;;;;;6.03;2.47;;;13.60;99.90;;;;;;4990568;28;20026;-50
2023/05/19 07:00:26;;;;;;;3.65;2.15;;;13.80;99.90;;;;;;4990096;28;20026;-48
2023/05/19 07:02:53;;;;;;;3.72;1.88;;;13.90;99.90;;;;;;4990095;28;20040;-50
2023/05/19 07:05:19;;;;;;;6.47;2.72;;;14.10;99.90;;;;;;4990204;28;20030;-48
2023/05/19 07:07:49;;;;;;;4.45;1.83;;;14.20;99.90;;;;;;4990336;28;20105;-51
2023/05/19 07:10:20;;;;;;;3.90;2.15;;;14.30;99.90;;;;;;4989999;28;20061;-51
2023/05/19 07:12:46;;;;;;;6.72;1.90;;;14.30;99.90;;;;;;4990283;28;20062;-49
2023/05/19 07:15:15;;;;;;;5.35;1.67;;;14.40;99.90;;;;;;4990244;28;20036;-52
2023/05/19 07:17:41;;;;;;;7.35;2.00;;;14.60;99.90;;;;;;4990409;28;20038;-52
2023/05/19 07:20:10;;;;;;;4.18;1.65;;;14.80;99.90;;;;;;4989897;28;20092;-48
2023/05/19 07:22:38;;;;;;;;;;;14.80;99.90;;;;;;4990430;28;20513;-51
2023/05/19 07:25:06;;;;;;;4.20;1.70;;;14.90;99.90;;;;;;4990135;28;20382;-48
2023/05/19 07:27:31;;;;;;;8.27;2.33;;;15.00;99.90;;;;;;4990089;28;20561;-50
2023/05/19 07:29:57;;;;;;;2.85;1.80;;;15.00;99.90;;;;;;4991522;28;20030;-48
2023/05/19 07:32:23;;;;;;;4.10;1.70;;;15.10;99.90;;;;;;4990902;28;20034;-49
2023/05/19 07:34:49;;;;;;;2.88;1.75;;;15.10;99.90;;;;;;4991589;28;20026;-50
2023/05/19 07:37:15;;;;;;;3.60;2.10;;;15.10;99.20;;;;;;4991273;28;20104;-51
2023/05/19 07:39:41;;;;;;;3.28;1.50;;;15.10;99.10;;;;;;4991372;28;20041;-49
2023/05/19 07:42:07;;;;;;;5.15;2.10;;;15.30;99.90;;;;;;4991390;28;20045;-49
2023/05/19 07:44:33;;;;;;;2.83;1.50;;;15.30;99.90;;;;;;4991198;28;20042;-48
2023/05/19 07:46:59;;;;;;;3.92;1.48;;;15.40;99.00;;;;;;4991160;28;20030;-50
2023/05/19 07:49:25;;;;;;;6.20;1.80;;;15.60;99.90;;;;;;4991275;28;20109;-52
2023/05/19 07:51:51;;;;;;;5.28;1.63;;;15.70;99.60;;;;;;4991061;28;20036;-50
2023/05/19 07:54:17;;;;;;;4.57;1.38;;;15.80;98.80;;;;;;4991070;28;20117;-49
2023/05/19 07:56:43;;;;;;;3.97;1.63;;;15.90;97.40;;;;;;4991242;28;20039;-52
2023/05/19 07:59:09;;;;;;;2.97;1.27;;;16.00;98.80;;;;;;4991320;28;20439;-51
2023/05/19 08:01:35;;;;;;;2.92;1.35;;;16.10;98.20;;;;;;4990633;28;20054;-51
2023/05/19 08:04:01;;;;;;;3.40;1.42;;;16.20;98.10;;;;;;4990896;28;20030;-49
2023/05/19 08:06:28;;;;;;;5.88;1.73;;;16.30;96.70;;;;;;4991022;28;20031;-50
2023/05/19 08:08:54;;;;;;;5.35;1.65;;;16.30;96.90;;;;;;4991220;28;20069;-49
2023/05/19 08:11:20;;;;;;;6.28;1.52;;;16.40;96.80;;;;;;4990790;28;20448;-50
2023/05/19 08:13:47;;;;;;;6.07;1.90;;;16.50;98.20;;;;;;4990855;28;20034;-52
2023/05/19 08:16:14;;;;;;;4.78;2.00;;;16.50;98.30;;;;;;4990869;28;20026;-52
2023/05/19 08:18:40;;;;;;;4.00;1.45;;;16.40;97.00;;;;;;4991057;28;20042;-50
2023/05/19 08:21:06;;;;;;;1.92;1.05;;;16.50;96.30;;;;;;4990629;28;20042;-51
2023/05/19 08:23:32;;;;;;;2.53;1.17;;;16.50;95.30;;;;;;4990702;28;20050;-49
2023/05/19 08:25:58;;;;;;;2.92;1.08;;;16.60;94.80;;;;;;4990913;28;20025;-50
2023/05/19 08:28:23;;;;;;;3.28;1.20;;;16.60;95.40;;;;;;4992572;28;20402;-49
2023/05/19 08:30:51;;;;;;;3.13;1.40;;;16.70;95.90;;;;;;4994206;28;20376;-51
2023/05/19 08:33:19;;;;;;;3.72;1.33;;;16.70;94.60;;;;;;4994633;28;20172;-53
2023/05/19 08:35:45;;;;;;;4.87;1.30;;;16.70;93.80;;;;;;4994824;28;20026;-49
2023/05/19 08:38:10;;;;;;;2.90;1.13;;;16.80;94.20;;;;;;4994380;28;20023;-53
2023/05/19 08:40:40;;;;;;;4.15;1.23;;;16.80;92.90;;;;;;4994189;28;20403;-53
2023/05/19 08:43:06;;;;;;;2.45;0.98;;;16.90;94.30;;;;;;4993767;28;20041;-50
2023/05/19 08:45:37;;;;;;;2.80;1.10;;;16.90;94.40;;;;;;4994192;28;20467;-51
2023/05/19 08:48:03;;;;;;;5.25;1.15;;;17.00;92.90;;;;;;4994309;28;20513;-48
2023/05/19 08:50:35;;;;;;;6.60;1.35;;;17.10;92.60;;;;;;4994254;28;20045;-48
2023/05/19 08:53:07;;;;;;;6.72;1.40;;;17.00;91.40;;;;;;4994432;28;20081;-49
2023/05/19 08:55:42;;;;;;;3.70;0.90;;;17.00;92.40;;;;;;4994146;28;20097;-49
2023/05/19 08:58:10;;;;;;;3.45;1.05;;;17.10;93.40;;;;;;4994234;28;20031;-47
2023/05/19 09:00:36;;;;;;;2.42;1.00;;;17.20;91.70;;;;;;4993920;28;20041;-49
2023/05/19 09:03:03;;;;;;;5.18;1.65;;;17.30;91.40;;;;;;4993739;28;20220;-49
2023/05/19 09:05:29;;;;;;;2.88;0.98;;;17.30;91.20;;;;;;4994068;28;20126;-49
2023/05/19 09:07:55;;;;;;;2.10;0.80;;;17.30;92.10;;;;;;4994154;28;20494;-50
2023/05/19 09:10:21;;;;;;;2.05;1.10;;;17.40;91.00;;;;;;4993716;28;20132;-49
2023/05/19 09:12:48;;;;;;;3.40;1.20;;;17.50;92.20;;;;;;4993671;28;20038;-48
2023/05/19 09:15:18;;;;;;;2.20;0.88;;;17.60;90.50;;;;;;4993937;28;20030;-49
2023/05/19 09:17:46;;;;;;;2.92;0.90;;;17.70;91.70;;;;;;4993639;28;20126;-53
2023/05/19 09:20:16;;;;;;;4.43;1.10;;;17.80;94.40;;;;;;4993466;28;20030;-48
2023/05/19 09:22:49;;;;;;;2.55;0.90;;;17.80;92.40;;;;;;4991986;28;20112;-50
2023/05/19 09:25:21;;;;;;;3.67;1.05;;;17.90;89.20;;;;;;4993631;28;20334;-48
2023/05/19 09:27:47;;;;;;;3.13;1.20;;;17.90;86.80;;;;;;4993502;28;20039;-48
2023/05/19 09:30:15;;;;;;;3.83;1.23;;;17.80;85.20;;;;;;4993272;28;20125;-47
2023/05/19 09:32:40;;;;;;;3.28;0.88;;;17.80;88.50;;;;;;4993161;28;20061;-49
2023/05/19 09:35:06;;;;;;;3.10;1.08;;;17.80;86.10;;;;;;4993845;28;20030;-49
2023/05/19 09:37:32;;;;;;;3.20;1.20;;;17.70;87.00;;;;;;4993227;28;20030;-49
2023/05/19 09:39:59;;;;;;;1.52;0.75;;;17.70;87.70;;;;;;4992156;28;20184;-50
2023/05/19 09:42:29;;;;;;;3.35;1.38;;;17.70;88.70;;;;;;4992892;28;20038;-51
2023/05/19 09:45:04;;;;;;;1.83;1.00;;;17.80;90.50;;;;;;4993600;28;20022;-51
2023/05/19 09:47:37;;;;;;;2.25;1.00;;;17.90;90.70;;;;;;4993375;28;20041;-49
2023/05/19 09:50:08;;;;;;;2.15;0.70;;;17.90;90.30;;;;;;4992858;28;20050;-48
2023/05/19 09:52:42;;;;;;;3.00;0.88;;;17.90;87.30;;;;;;4993040;28;20034;-48
2023/05/19 09:55:12;;;;;;;3.63;1.02;;;18.00;87.80;;;;;;4992732;28;20495;-49
2023/05/19 09:57:39;;;;;;;3.42;1.00;;;18.00;86.40;;;;;;4993013;28;20144;-48
2023/05/19 10:00:14;;;;;;;3.60;1.20;;;18.10;87.30;;;;;;4992791;28;20034;-50
2023/05/19 10:02:45;;;;;;;3.25;1.27;;;18.10;86.30;;;;;;4992714;28;20042;-49
2023/05/19 10:05:21;;;;;;;3.17;1.00;;;18.20;87.10;;;;;;4992573;28;20041;-51
2023/05/19 10:07:50;;;;;;;5.63;1.55;;;18.40;88.20;;;;;;4992618;28;20034;-50
2023/05/19 10:10:16;;;;;;;;;;;18.40;85.10;;;;;;4992948;28;20080;-49
2023/05/19 10:12:42;;;;;;;2.95;1.10;;;18.50;84.80;;;;;;4992305;28;20000;-50
2023/05/19 10:15:10;;;;;;;2.63;1.10;;;18.60;84.40;;;;;;4991180;28;20042;-49
2023/05/19 10:17:40;;;;;;;5.05;1.05;;;18.40;81.70;;;;;;4992677;28;20030;-51
2023/05/19 10:20:14;;;;;;;2.28;0.88;;;18.40;83.30;;;;;;4992200;28;20491;-48
2023/05/19 10:22:41;;;;;;;3.97;1.25;;;18.40;81.90;;;;;;4992170;28;20081;-49
2023/05/19 10:25:09;;;;;;;3.38;0.90;;;18.30;83.20;;;;;;4992356;28;20102;-48
2023/05/19 10:27:37;;;;;;;3.85;1.08;;;18.50;85.50;;;;;;4992307;28;20517;-49
2023/05/19 10:30:19;;;;;;;3.53;0.93;;;18.50;81.50;;;;;;4991957;28;20030;-49
2023/05/19 10:32:48;;;;;;;4.65;1.20;;;18.50;84.80;;;;;;4992246;28;20475;-50
2023/05/19 10:35:50;;;;;;;4.63;1.23;;;18.50;84.90;;;;;;4992596;28;20034;-50
2023/05/19 10:38:32;;;;;;;3.22;1.15;;;18.60;82.70;;;;;;4992302;28;20306;-48
2023/05/19 10:41:22;;;;;;;1.58;1.00;;;18.70;83.60;;;;;;4990623;28;20030;-50
2023/05/19 10:44:21;;;;;;;3.30;0.85;;;18.70;80.10;;;;;;4991797;28;20034;-52
2023/05/19 10:46:47;;;;;;;2.90;1.08;;;18.70;81.50;;;;;;4992159;28;20444;-53
2023/05/19 10:49:23;;;;;;;3.38;0.90;;;18.80;82.50;;;;;;4990737;28;20058;-50
2023/05/19 10:51:53;;;;;;;3.67;1.02;;;18.90;78.60;;;;;;4991285;28;20034;-49
2023/05/19 10:54:42;;;;;;;4.13;1.33;;;18.70;77.30;;;;;;4991718;28;20045;-49
2023/05/19 10:57:08;;;;;;;2.53;1.10;;;18.70;78.80;;;;;;4992087;28;20073;-49
2023/05/19 10:59:38;;;;;;;3.08;1.00;;;18.80;79.80;;;;;;4992094;28;20453;-52
2023/05/19 11:02:05;;;;;;;20.98;9.07;;;19.00;77.00;;;;;;4991382;28;20041;-52
2023/05/19 11:04:52;;;;;;;35.95;20.23;;;19.10;77.50;;;;;;4991732;28;20027;-49
2023/05/19 11:07:20;;;;;;;5.28;2.00;;;19.10;77.30;;;;;;4991653;28;20117;-49
2023/05/19 11:09:52;;;;;;;2.50;1.10;;;19.00;77.10;;;;;;4991726;28;20113;-49
2023/05/19 11:12:22;;;;;;;2.22;1.00;;;19.00;76.40;;;;;;4991181;28;20257;-50
2023/05/19 11:14:51;;;;;;;3.58;1.10;;;19.00;78.40;;;;;;4991651;28;20026;-49
2023/05/19 11:17:17;;;;;;;;;;;19.10;75.20;;;;;;4992070;28;20080;-50
2023/05/19 11:19:58;;;;;;;2.83;1.23;;;19.10;76.70;;;;;;4991451;28;19914;-50
2023/05/19 11:22:27;;;;;;;3.13;1.17;;;19.10;75.00;;;;;;4991035;28;20038;-49
2023/05/19 11:24:56;;;;;;;3.70;1.25;;;19.10;75.10;;;;;;4991603;28;20034;-48
2023/05/19 11:27:33;;;;;;;3.92;1.17;;;19.10;75.70;;;;;;4991593;28;20452;-52
2023/05/19 11:30:17;;;;;;;3.67;1.08;;;19.10;78.00;;;;;;4991441;28;20038;-50
2023/05/19 11:32:46;;;;;;;6.00;1.55;;;19.10;74.20;;;;;;4991585;28;20077;-49
2023/05/19 11:35:13;;;;;;;;;;;19.20;73.60;;;;;;4991990;28;20387;-48
2023/05/19 11:37:40;;;;;;;5.00;1.00;;;19.40;75.00;;;;;;4991379;28;20337;-48
2023/05/19 11:40:06;;;;;;;3.17;1.42;;;19.40;72.40;;;;;;4991247;28;20034;-49
2023/05/19 11:42:36;;;;;;;3.70;1.00;;;19.50;75.80;;;;;;4990892;28;20030;-51
2023/05/19 11:45:03;;;;;;;4.53;1.10;;;19.50;73.30;;;;;;4991473;28;20026;-51
2023/05/19 11:47:31;;;;;;;3.70;1.10;;;19.50;76.10;;;;;;4991434;28;20031;-49
2023/05/19 11:49:57;;;;;;;5.43;1.38;;;19.50;73.10;;;;;;4991961;28;20194;-50
2023/05/19 11:52:24;;;;;;;3.88;1.67;;;19.50;72.00;;;;;;4990687;28;20042;-49
2023/05/19 11:54:51;;;;;;;2.75;1.10;;;19.40;72.80;;;;;;4991233;28;20497;-51
2023/05/19 11:57:17;;;;;;;4.57;1.25;;;19.30;71.30;;;;;;4991520;28;20034;-51
2023/05/19 11:59:44;;;;;;;4.57;1.27;;;19.30;70.80;;;;;;4991620;28;20514;-50
2023/05/19 12:02:21;;;;;;;4.13;1.50;;;19.20;70.90;;;;;;4991201;28;20043;-52
2023/05/19 12:04:48;;;;;;;3.95;1.75;;;19.40;71.80;;;;;;4995471;28;20050;-48
2023/05/19 12:07:22;;;;;;;7.38;1.67;;;19.40;77.50;;;;;;4995061;28;20073;-52
2023/05/19 12:09:49;;;;;;;3.72;1.20;;;19.60;77.20;;;;;;4995059;28;20030;-49
2023/05/19 12:12:21;;;;;;;4.18;1.33;;;19.60;72.80;;;;;;4994899;28;20262;-49
2023/05/19 12:14:49;;;;;;;1.60;0.85;;;19.60;72.10;;;;;;4994910;28;20492;-52
2023/05/19 12:17:18;;;;;;;3.38;1.20;;;19.70;73.20;;;;;;4994990;28;20058;-50
2023/05/19 12:19:47;;;;;;;3.35;1.20;;;19.70;74.80;;;;;;4994907;28;20088;-50
2023/05/19 12:22:15;;;;;;;2.95;1.10;;;19.70;74.30;;;;;;4994208;28;20042;-49
2023/05/19 12:24:42;;;;;;;2.08;1.20;;;19.70;71.50;;;;;;4994664;28;20058;-53
2023/05/19 12:27:12;;;;;;;2.70;1.02;;;19.70;73.00;;;;;;4994582;28;20402;-49
2023/05/19 12:29:39;;;;;;;3.50;1.48;;;19.80;69.70;;;;;;4994747;28;20096;-49
2023/05/19 12:32:08;;;;;;;5.40;1.35;;;19.90;70.80;;;;;;4994233;28;20061;-49
2023/05/19 12:34:38;;;;;;;3.55;1.67;;;19.90;71.00;;;;;;4994230;28;20126;-49
2023/05/19 12:37:04;;;;;;;4.63;1.35;;;19.80;74.50;;;;;;4994751;28;20034;-49
2023/05/19 12:39:31;;;;;;;3.67;1.00;;;19.90;70.20;;;;;;4994503;28;20125;-51
2023/05/19 12:42:13;;;;;;;3.08;0.98;;;19.80;69.10;;;;;;4994350;28;20049;-49
2023/05/19 12:44:47;;;;;;;3.78;1.10;;;19.80;70.10;;;;;;4994545;28;20027;-50
2023/05/19 12:47:14;;;;;;;4.15;1.60;;;19.90;69.40;;;;;;4994255;28;20591;-49
2023/05/19 12:50:00;;;;;;;3.80;1.20;;;19.80;69.20;;;;;;4994130;28;20052;-51
2023/05/19 12:52:27;;;;;;;1.98;1.05;;;19.70;68.90;;;;;;4993686;28;20038;-50
2023/05/19 12:55:03;;;;;;;4.13;1.55;;;19.80;70.00;;;;;;4994057;28;20035;-50
2023/05/19 12:57:32;;;;;;;3.40;1.20;;;19.80;70.70;;;;;;4993925;28;20034;-49
2023/05/19 13:00:19;;;;;;;3.30;1.20;;;19.70;69.30;;;;;;4993856;28;20039;-49
2023/05/19 13:03:00;;;;;;;4.35;1.15;;;19.70;69.00;;;;;;4993646;28;20034;-50